Canet de Mar, Spain
Current Conditions -  °F | °C
As of 8:30 AM on Sunday 26 Oct 2014 (Local Time) from LEGE Reporting Station
Clear Clear  
Wind Chill: 52°   Ceiling: Unl
Heat Index: 52°   Visibility: 6mi
Dew Point: 52°   Wind: 0mph
Humidity: 100%   Direction: NA
Pressure: 30.18"   Gusts: NA
Location:  41.59°N, 2.58°E
Report Text: LEGE 260630Z 00000KT CAVOK 11/11 Q1022
Loading
Personal Weather Stations






























Interactive Weather Map
Tropical Storm Tracking
New forecast layout! Learn more

10-Day Weather Forecast

Advertisements
Track Severe Weather on mobile